PWSweather.com
Personal Weather Stations
Station Observations
RAINMAN1
Jacksonville, FL 32224

Jacksonville, FL 32224

Lat: 30.28041649, Lon: -81.46911621

Elevation: 26

Station Type: Tycon TP1080WC

Latest ConditionsUpdated 2:15:01 AM EST Tuesday, Mar 3, 2015
Currently Today's Max Today's Min Today's Average
Temperature 60.4°F15.8°C 60.6°F15.9°C 57.7°F14.3°C 59.5°F15.3°C
Dew Point 60.2°F15.7°C 60.4°F15.8°C 57.5°F14.2°C 59.3°F15.2°C
Winds 0.4 mph S0.6 kmh S 1.9 mph SW3.1 kmh SW - 0.9 mph 1.4 kmh
Wind Gusts 1.6 mph2.6 kmh 3.8 mph6.1 kmh - -
Humidity 99% 99% 99% 99%
Pressure 29.90 in1012.5 mb 29.92 in1013.2 mb 29.90 in1012.5 mb -
Hour Temp Dew Point Humidity Winds Wind Gusts Pressure Precip Precip Rate Daily Precip Total
02:15 AM 60.4°F15.8°C 60.2°F15.7°C 99% 0.4 mph S0.6 kmh S 1.6 mph2.6 kmh 29.90 in1012.5 mb 0.00 in0.0 mm 0.00 in/hr0.0 mm/hr 0.00 in0.0 mm
02:10 AM 60.4°F15.8°C 60.2°F15.7°C 99% 0.1 mph S0.2 kmh S 0.7 mph1.1 kmh 29.91 in1012.9 mb 0.00 in0.0 mm 0.00 in/hr0.0 mm/hr 0.00 in0.0 mm
02:05 AM 60.6°F15.9°C 60.4°F15.8°C 99% 0.5 mph SE0.8 kmh SE 1.6 mph2.6 kmh 29.91 in1012.9 mb 0.00 in0.0 mm 0.00 in/hr0.0 mm/hr 0.00 in0.0 mm
02:00 AM 60.6°F15.9°C 60.4°F15.8°C 99% 0.7 mph SE1.1 kmh SE 1.6 mph2.6 kmh 29.91 in1012.9 mb 0.00 in0.0 mm 0.00 in/hr0.0 mm/hr 0.00 in0.0 mm
01:55 AM 60.4°F15.8°C 60.2°F15.7°C 99% 0.3 mph SE0.5 kmh SE 1.6 mph2.6 kmh 29.91 in1012.9 mb 0.00 in0.0 mm 0.00 in/hr0.0 mm/hr 0.00 in0.0 mm
01:50 AM 60.4°F15.8°C 60.2°F15.7°C 99% 0.1 mph SE0.2 kmh SE 0.7 mph1.1 kmh 29.90 in1012.5 mb 0.00 in0.0 mm 0.00 in/hr0.0 mm/hr 0.00 in0.0 mm
01:45 AM 60.4°F15.8°C 60.2°F15.7°C 99% 0.1 mph E0.2 kmh E 0.7 mph1.1 kmh 29.90 in1012.5 mb 0.00 in0.0 mm 0.00 in/hr0.0 mm/hr 0.00 in0.0 mm
01:40 AM 60.4°F15.8°C 60.2°F15.7°C 99% 0.1 mph ESE0.2 kmh ESE 0.7 mph1.1 kmh 29.90 in1012.5 mb 0.00 in0.0 mm 0.00 in/hr0.0 mm/hr 0.00 in0.0 mm
01:35 AM 60.3°F15.7°C 60.0°F15.6°C 99% 0.5 mph S0.8 kmh S 1.6 mph2.6 kmh 29.90 in1012.5 mb 0.00 in0.0 mm 0.00 in/hr0.0 mm/hr 0.00 in0.0 mm
01:30 AM 60.3°F15.7°C 60.0°F15.6°C 99% 0.9 mph S1.4 kmh S 1.6 mph2.6 kmh 29.91 in1012.9 mb 0.00 in0.0 mm 0.00 in/hr0.0 mm/hr 0.00 in0.0 mm
01:25 AM 60.1°F15.6°C 59.8°F15.4°C 99% 0.6 mph S1.0 kmh S 1.6 mph2.6 kmh 29.90 in1012.5 mb 0.00 in0.0 mm 0.00 in/hr0.0 mm/hr 0.00 in0.0 mm
01:20 AM 60.3°F15.7°C 60.0°F15.6°C 99% 0.3 mph SW0.5 kmh SW 0.7 mph1.1 kmh 29.91 in1012.9 mb 0.00 in0.0 mm 0.00 in/hr0.0 mm/hr 0.00 in0.0 mm
01:15 AM 60.1°F15.6°C 59.8°F15.4°C 99% 0.7 mph W1.1 kmh W 1.6 mph2.6 kmh 29.91 in1012.9 mb 0.00 in0.0 mm 0.00 in/hr0.0 mm/hr 0.00 in0.0 mm
01:10 AM 59.9°F15.5°C 59.6°F15.3°C 99% 1.3 mph W2.1 kmh W 1.6 mph2.6 kmh 29.91 in1012.9 mb 0.00 in0.0 mm 0.00 in/hr0.0 mm/hr 0.00 in0.0 mm
01:05 AM 59.7°F15.4°C 59.5°F15.3°C 99% 1.5 mph WSW2.4 kmh WSW 2.2 mph3.5 kmh 29.91 in1012.9 mb 0.00 in0.0 mm 0.00 in/hr0.0 mm/hr 0.00 in0.0 mm
01:00 AM 59.7°F15.4°C 59.5°F15.3°C 99% 1.1 mph WSW1.8 kmh WSW 2.2 mph3.5 kmh 29.91 in1012.9 mb 0.00 in0.0 mm 0.00 in/hr0.0 mm/hr 0.00 in0.0 mm
12:55 AM 59.5°F15.3°C 59.3°F15.2°C 99% 1.1 mph SW1.8 kmh SW 2.2 mph3.5 kmh 29.91 in1012.9 mb 0.00 in0.0 mm 0.00 in/hr0.0 mm/hr 0.00 in0.0 mm
12:50 AM 59.5°F15.3°C 59.3°F15.2°C 99% 1.6 mph SW2.6 kmh SW 3.8 mph6.1 kmh 29.91 in1012.9 mb 0.00 in0.0 mm 0.00 in/hr0.0 mm/hr 0.00 in0.0 mm
12:45 AM 59.4°F15.2°C 59.1°F15.1°C 99% 1.8 mph SW2.9 kmh SW 3.8 mph6.1 kmh 29.91 in1012.9 mb 0.00 in0.0 mm 0.00 in/hr0.0 mm/hr 0.00 in0.0 mm
12:40 AM 59.2°F15.1°C 58.9°F14.9°C 99% 1.8 mph SW2.9 kmh SW 3.8 mph6.1 kmh 29.91 in1012.9 mb 0.00 in0.0 mm 0.00 in/hr0.0 mm/hr 0.00 in0.0 mm
12:35 AM 59.0°F15.0°C 58.7°F14.8°C 99% 1.9 mph WSW3.1 kmh WSW 3.8 mph6.1 kmh 29.92 in1013.2 mb 0.00 in0.0 mm 0.00 in/hr0.0 mm/hr 0.00 in0.0 mm
12:30 AM 58.8°F14.9°C 58.6°F14.8°C 99% 1.9 mph SW3.1 kmh SW 3.8 mph6.1 kmh 29.92 in1013.2 mb 0.00 in0.0 mm 0.00 in/hr0.0 mm/hr 0.00 in0.0 mm
12:25 AM 58.6°F14.8°C 58.4°F14.7°C 99% 1.8 mph SSW2.9 kmh SSW 3.1 mph5.0 kmh 29.92 in1013.2 mb 0.00 in0.0 mm 0.00 in/hr0.0 mm/hr 0.00 in0.0 mm
12:20 AM 58.3°F14.6°C 58.0°F14.4°C 99% 1.5 mph S2.4 kmh S 3.1 mph5.0 kmh 29.92 in1013.2 mb 0.00 in0.0 mm 0.00 in/hr0.0 mm/hr 0.00 in0.0 mm
12:15 AM 57.7°F14.3°C 57.5°F14.2°C 99% 1.1 mph SW1.8 kmh SW 2.2 mph3.5 kmh 29.92 in1013.2 mb 0.00 in0.0 mm 0.00 in/hr0.0 mm/hr 0.00 in0.0 mm
12:10 AM 57.9°F14.4°C 57.7°F14.3°C 99% 0.9 mph WSW1.4 kmh WSW 1.6 mph2.6 kmh 29.92 in1013.2 mb 0.00 in0.0 mm 0.00 in/hr0.0 mm/hr 0.00 in0.0 mm
12:05 AM 57.7°F14.3°C 57.5°F14.2°C 99% 0.8 mph W1.3 kmh W 2.2 mph3.5 kmh 29.92 in1013.2 mb 0.00 in0.0 mm 0.00 in/hr0.0 mm/hr 0.00 in0.0 mm
12:00 AM 57.7°F14.3°C 57.5°F14.2°C 99% 0.6 mph WSW1.0 kmh WSW 2.2 mph3.5 kmh 29.92 in1013.2 mb 0.00 in0.0 mm 0.00 in/hr0.0 mm/hr 0.00 in0.0 mm